createdAt,value
2023-04-02T00:00:02.320Z,988.51
2023-04-02T00:01:02.297Z,988.48
2023-04-02T00:02:02.313Z,988.45
2023-04-02T00:03:02.368Z,988.56
2023-04-02T00:04:02.626Z,988.55
2023-04-02T00:05:02.243Z,988.58
2023-04-02T00:06:02.242Z,988.57
2023-04-02T00:07:02.247Z,988.61
2023-04-02T00:08:02.220Z,988.60
2023-04-02T00:09:02.949Z,988.62
2023-04-02T00:10:02.207Z,988.64
2023-04-02T00:11:02.190Z,988.65
2023-04-02T00:12:02.177Z,988.72
2023-04-02T00:13:02.171Z,988.71
2023-04-02T00:14:02.456Z,988.75
2023-04-02T00:15:02.138Z,988.81
2023-04-02T00:16:02.145Z,988.79
2023-04-02T00:17:02.126Z,988.76
2023-04-02T00:18:02.151Z,988.81
2023-04-02T00:19:03.050Z,988.82
2023-04-02T00:20:02.106Z,988.85
2023-04-02T00:21:02.079Z,988.88
2023-04-02T00:22:02.072Z,988.91
2023-04-02T00:23:02.061Z,988.94
2023-04-02T00:24:02.339Z,989.01
2023-04-02T00:25:02.038Z,988.98
2023-04-02T00:26:02.035Z,989.04
2023-04-02T00:27:02.016Z,989.04
2023-04-02T00:28:02.020Z,989.03
2023-04-02T00:29:02.387Z,989.08
2023-04-02T00:30:01.985Z,989.10
2023-04-02T00:31:01.971Z,989.16
2023-04-02T00:32:02.012Z,989.13
2023-04-02T00:33:02.001Z,989.11
2023-04-02T00:34:02.308Z,989.17
2023-04-02T00:35:01.943Z,989.16
2023-04-02T00:36:01.953Z,989.20
2023-04-02T00:37:01.957Z,989.20
2023-04-02T00:38:01.904Z,989.23
2023-04-02T00:40:28.090Z,989.26
2023-04-02T00:40:33.596Z,989.26
2023-04-02T00:41:33.588Z,989.31
2023-04-02T00:42:33.573Z,989.31
2023-04-02T00:43:33.566Z,989.31
2023-04-02T00:44:33.585Z,989.32
2023-04-02T00:45:33.743Z,989.34
2023-04-02T00:46:33.536Z,989.35
2023-04-02T00:47:33.555Z,989.36
2023-04-02T00:48:33.518Z,989.38
2023-04-02T00:49:34.275Z,989.40
2023-04-02T00:50:33.486Z,989.40
2023-04-02T00:51:33.483Z,989.42
2023-04-02T00:52:33.469Z,989.43
2023-04-02T00:53:33.463Z,989.46
2023-04-02T00:54:34.236Z,989.46
2023-04-02T00:55:33.684Z,989.51
2023-04-02T00:56:33.425Z,989.50
2023-04-02T00:57:33.588Z,989.50
2023-04-02T00:58:33.405Z,989.55
2023-04-02T00:59:34.175Z,989.54
2023-04-02T01:00:33.423Z,989.57
2023-04-02T01:01:33.445Z,989.60
2023-04-02T01:02:33.414Z,989.59
2023-04-02T01:03:33.569Z,989.59
2023-04-02T01:04:33.671Z,989.60
2023-04-02T01:05:33.654Z,989.65
2023-04-02T01:06:33.320Z,989.63
2023-04-02T01:07:33.309Z,989.64
2023-04-02T01:08:33.296Z,989.66
2023-04-02T01:09:34.018Z,989.66
2023-04-02T01:10:33.280Z,989.63
2023-04-02T01:11:33.270Z,989.67
2023-04-02T01:12:33.250Z,989.68
2023-04-02T01:13:33.257Z,989.69
2023-04-02T01:14:33.768Z,989.73
2023-04-02T01:15:33.558Z,989.73
2023-04-02T01:16:33.285Z,989.77
2023-04-02T01:17:33.224Z,989.75
2023-04-02T01:18:33.218Z,989.81
2023-04-02T01:19:33.917Z,989.84
2023-04-02T01:20:33.169Z,989.86
2023-04-02T01:21:33.161Z,989.88
2023-04-02T01:22:33.160Z,989.88
2023-04-02T01:23:33.137Z,989.92
2023-04-02T01:24:33.891Z,989.93
2023-04-02T01:25:33.322Z,989.95
2023-04-02T01:26:33.111Z,989.98
2023-04-02T01:27:33.095Z,989.98
2023-04-02T01:28:33.090Z,990.02
2023-04-02T01:29:33.814Z,990.01
2023-04-02T01:30:33.068Z,990.03
2023-04-02T01:31:33.067Z,990.07
2023-04-02T01:32:33.056Z,990.09
2023-04-02T01:33:33.036Z,990.11
2023-04-02T01:34:33.372Z,990.13
2023-04-02T01:35:33.324Z,990.20
2023-04-02T01:36:33.007Z,990.18
2023-04-02T01:37:32.998Z,990.21
2023-04-02T01:38:32.985Z,990.23
2023-04-02T01:39:33.709Z,990.23
2023-04-02T01:40:32.965Z,990.27
2023-04-02T01:41:32.950Z,990.29
2023-04-02T01:42:32.943Z,990.34
2023-04-02T01:43:32.934Z,990.33
2023-04-02T01:44:32.945Z,990.35
2023-04-02T01:45:33.094Z,990.39
2023-04-02T01:46:32.934Z,990.44
2023-04-02T01:47:32.934Z,990.45
2023-04-02T01:48:32.884Z,990.48
2023-04-02T01:49:32.863Z,990.51
2023-04-02T01:50:33.676Z,990.54
2023-04-02T01:51:32.875Z,990.56
2023-04-02T01:52:32.835Z,990.61
2023-04-02T01:53:32.818Z,990.58
2023-04-02T01:54:33.521Z,990.60
2023-04-02T01:55:33.128Z,990.63
2023-04-02T01:56:32.794Z,990.64
2023-04-02T01:57:32.852Z,990.65
2023-04-02T01:58:32.780Z,990.68
2023-04-02T01:59:32.762Z,990.70
2023-04-02T02:00:33.579Z,990.71
2023-04-02T02:01:32.736Z,990.71
2023-04-02T02:02:32.824Z,990.74
2023-04-02T02:03:32.717Z,990.74
2023-04-02T02:04:32.707Z,990.77
2023-04-02T02:05:33.281Z,990.80
2023-04-02T02:06:32.687Z,990.82
2023-04-02T02:07:32.673Z,990.86
2023-04-02T02:08:32.685Z,990.85
2023-04-02T02:09:32.652Z,990.90
2023-04-02T02:10:33.513Z,990.93
2023-04-02T02:11:32.633Z,990.93
2023-04-02T02:12:32.629Z,990.95
2023-04-02T02:13:32.618Z,990.97
2023-04-02T02:14:32.615Z,991.00
2023-04-02T02:15:33.211Z,991.00
2023-04-02T02:16:32.622Z,991.04
2023-04-02T02:17:32.620Z,991.05
2023-04-02T02:18:32.572Z,991.09
2023-04-02T02:19:32.561Z,991.08
2023-04-02T02:20:32.856Z,991.12
2023-04-02T02:21:32.539Z,991.11
2023-04-02T02:22:32.533Z,991.14
2023-04-02T02:23:32.518Z,991.14
2023-04-02T02:24:32.506Z,991.18
2023-04-02T02:25:33.621Z,991.19
2023-04-02T02:26:32.490Z,991.20
2023-04-02T02:27:32.473Z,991.23
2023-04-02T02:28:32.476Z,991.26
2023-04-02T02:29:32.451Z,991.26
2023-04-02T02:30:33.344Z,991.27
2023-04-02T02:31:32.448Z,991.32
2023-04-02T02:32:32.448Z,991.35
2023-04-02T02:33:32.415Z,991.34
2023-04-02T02:34:32.406Z,991.37
2023-04-02T02:35:32.617Z,991.41
2023-04-02T02:36:32.384Z,991.43
2023-04-02T02:37:32.372Z,991.44
2023-04-02T02:38:32.366Z,991.45
2023-04-02T02:39:32.350Z,991.49
2023-04-02T02:40:33.089Z,991.50
2023-04-02T02:41:32.332Z,991.53
2023-04-02T02:42:32.328Z,991.57
2023-04-02T02:43:32.310Z,991.58
2023-04-02T02:44:32.312Z,991.60
2023-04-02T02:45:33.133Z,991.65
2023-04-02T02:46:32.284Z,991.65
2023-04-02T02:47:32.301Z,991.67
2023-04-02T02:48:32.262Z,991.67
2023-04-02T02:49:32.250Z,991.71
2023-04-02T02:50:32.975Z,991.71
2023-04-02T02:51:32.225Z,991.73
2023-04-02T02:52:32.221Z,991.72
2023-04-02T02:53:32.205Z,991.76
2023-04-02T02:54:32.204Z,991.75
2023-04-02T02:55:32.996Z,991.78
2023-04-02T02:56:32.177Z,991.80
2023-04-02T02:57:32.197Z,991.80
2023-04-02T02:58:32.157Z,991.83
2023-04-02T02:59:32.147Z,991.82
2023-04-02T03:00:32.146Z,991.86
2023-04-02T03:01:32.197Z,991.90
2023-04-02T03:02:32.226Z,991.92
2023-04-02T03:03:32.239Z,991.95
2023-04-02T03:04:32.096Z,991.98
2023-04-02T03:05:32.455Z,991.99
2023-04-02T03:06:32.079Z,992.01
2023-04-02T03:07:32.064Z,992.06
2023-04-02T03:08:32.054Z,992.08
2023-04-02T03:09:32.047Z,992.09
2023-04-02T03:10:32.815Z,992.13
2023-04-02T03:11:32.021Z,992.13
2023-04-02T03:12:32.013Z,992.17
2023-04-02T03:13:32.005Z,992.17
2023-04-02T03:14:31.992Z,992.18
2023-04-02T03:15:32.310Z,992.19
2023-04-02T03:16:31.973Z,992.24
2023-04-02T03:17:31.970Z,992.24
2023-04-02T03:18:31.956Z,992.27
2023-04-02T03:19:31.933Z,992.31
2023-04-02T03:20:32.386Z,992.31
2023-04-02T03:21:31.926Z,992.33
2023-04-02T03:22:31.915Z,992.36
2023-04-02T03:23:31.898Z,992.38
2023-04-02T03:24:31.893Z,992.42
2023-04-02T03:25:32.764Z,992.44
2023-04-02T03:26:31.880Z,992.44
2023-04-02T03:27:31.858Z,992.46
2023-04-02T03:28:31.879Z,992.49
2023-04-02T03:29:31.834Z,992.51
2023-04-02T03:30:32.518Z,992.56
2023-04-02T03:31:31.828Z,992.55
2023-04-02T03:32:31.847Z,992.58
2023-04-02T03:33:31.799Z,992.58
2023-04-02T03:34:31.798Z,992.61
2023-04-02T03:35:32.108Z,992.61
2023-04-02T03:36:31.777Z,992.64
2023-04-02T03:37:31.760Z,992.66
2023-04-02T03:38:31.759Z,992.69
2023-04-02T03:39:31.735Z,992.70
2023-04-02T03:40:32.418Z,992.72
2023-04-02T03:41:31.719Z,992.76
2023-04-02T03:42:31.709Z,992.77
2023-04-02T03:43:31.694Z,992.79
2023-04-02T03:44:31.686Z,992.84
2023-04-02T03:45:31.948Z,992.84
2023-04-02T03:46:31.730Z,992.87
2023-04-02T03:47:31.678Z,992.87
2023-04-02T03:48:31.657Z,992.87
2023-04-02T03:49:31.632Z,992.91
2023-04-02T03:50:31.950Z,992.95
2023-04-02T03:51:31.616Z,992.95
2023-04-02T03:52:31.604Z,992.96
2023-04-02T03:53:31.592Z,992.97
2023-04-02T03:54:31.584Z,993.00
2023-04-02T03:55:31.623Z,993.01
2023-04-02T03:56:31.989Z,993.02
2023-04-02T03:57:31.586Z,993.04
2023-04-02T03:58:31.546Z,993.07
2023-04-02T03:59:31.528Z,993.11
2023-04-02T04:00:31.884Z,993.12
2023-04-02T04:01:31.504Z,993.12
2023-04-02T04:02:31.678Z,993.14
2023-04-02T04:03:31.485Z,993.15
2023-04-02T04:04:31.511Z,993.15
2023-04-02T04:05:31.816Z,993.18
2023-04-02T04:06:31.461Z,993.20
2023-04-02T04:07:31.455Z,993.24
2023-04-02T04:08:31.441Z,993.30
2023-04-02T04:09:31.423Z,993.26
2023-04-02T04:10:32.369Z,993.30
2023-04-02T04:11:31.403Z,993.33
2023-04-02T04:12:31.410Z,993.36
2023-04-02T04:13:31.386Z,993.35
2023-04-02T04:14:31.389Z,993.38
2023-04-02T04:15:31.768Z,993.39
2023-04-02T04:16:31.433Z,993.39
2023-04-02T04:17:31.404Z,993.42
2023-04-02T04:18:31.332Z,993.46
2023-04-02T04:19:31.319Z,993.49
2023-04-02T04:20:31.758Z,993.50
2023-04-02T04:21:31.484Z,993.53
2023-04-02T04:22:31.293Z,993.59
2023-04-02T04:23:31.278Z,993.55
2023-04-02T04:24:31.273Z,993.61
2023-04-02T04:25:32.133Z,993.64
2023-04-02T04:26:31.197Z,993.65
2023-04-02T04:27:31.234Z,993.66
2023-04-02T04:28:31.233Z,993.67
2023-04-02T04:29:31.186Z,993.69
2023-04-02T04:30:31.718Z,993.71
2023-04-02T04:31:31.208Z,993.74
2023-04-02T04:32:31.213Z,993.73
2023-04-02T04:33:31.177Z,993.78
2023-04-02T04:34:31.182Z,993.78
2023-04-02T04:35:31.576Z,993.83
2023-04-02T04:36:31.133Z,993.84
2023-04-02T04:37:31.081Z,993.84
2023-04-02T04:38:31.076Z,993.86
2023-04-02T04:39:31.060Z,993.88
2023-04-02T04:40:31.911Z,993.93
2023-04-02T04:41:31.052Z,993.95
2023-04-02T04:42:31.038Z,993.96
2023-04-02T04:43:31.024Z,994.00
2023-04-02T04:44:31.013Z,993.99
2023-04-02T04:45:31.427Z,994.00
2023-04-02T04:46:31.030Z,994.05
2023-04-02T04:47:31.019Z,994.06
2023-04-02T04:48:30.995Z,994.10
2023-04-02T04:49:30.959Z,994.10
2023-04-02T04:50:31.761Z,994.13
2023-04-02T04:51:30.942Z,994.16
2023-04-02T04:52:30.940Z,994.21
2023-04-02T04:53:30.935Z,994.22
2023-04-02T04:54:30.915Z,994.24
2023-04-02T04:55:31.706Z,994.28
2023-04-02T04:56:30.894Z,994.31
2023-04-02T04:57:30.906Z,994.36
2023-04-02T04:58:30.872Z,994.36
2023-04-02T04:59:30.860Z,994.37
2023-04-02T05:00:31.431Z,994.38
2023-04-02T05:01:30.850Z,994.42
2023-04-02T05:02:30.851Z,994.43
2023-04-02T05:03:30.822Z,994.45
2023-04-02T05:04:30.824Z,994.50
2023-04-02T05:05:31.100Z,994.50
2023-04-02T05:06:30.797Z,994.51
2023-04-02T05:07:30.775Z,994.51
2023-04-02T05:08:30.769Z,994.58
2023-04-02T05:09:30.750Z,994.54
2023-04-02T05:10:31.561Z,994.54
2023-04-02T05:11:30.731Z,994.58
2023-04-02T05:12:30.724Z,994.59
2023-04-02T05:13:30.714Z,994.64
2023-04-02T05:14:30.704Z,994.61
2023-04-02T05:15:31.100Z,994.61
2023-04-02T05:16:30.729Z,994.69
2023-04-02T05:17:30.792Z,994.69
2023-04-02T05:18:30.667Z,994.72
2023-04-02T05:19:30.659Z,994.73
2023-04-02T05:20:30.686Z,994.72
2023-04-02T05:21:30.626Z,994.80
2023-04-02T05:22:30.626Z,994.83
2023-04-02T05:23:30.624Z,994.85
2023-04-02T05:24:30.602Z,994.88
2023-04-02T05:25:31.372Z,994.91
2023-04-02T05:26:30.586Z,994.94
2023-04-02T05:27:30.568Z,994.95
2023-04-02T05:28:30.561Z,995.01
2023-04-02T05:29:30.544Z,995.06
2023-04-02T05:30:31.507Z,995.09
2023-04-02T05:31:30.572Z,995.07
2023-04-02T05:32:30.527Z,995.10
2023-04-02T05:33:30.511Z,995.13
2023-04-02T05:34:30.490Z,995.16
2023-04-02T05:35:30.495Z,995.19
2023-04-02T05:36:30.661Z,995.22
2023-04-02T05:37:30.469Z,995.24
2023-04-02T05:38:30.450Z,995.26
2023-04-02T05:39:30.454Z,995.29
2023-04-02T05:40:30.436Z,995.30
2023-04-02T05:41:30.482Z,995.35
2023-04-02T05:42:30.415Z,995.37
2023-04-02T05:43:30.410Z,995.39
2023-04-02T05:44:30.407Z,995.40
2023-04-02T05:45:30.396Z,995.43
2023-04-02T05:46:30.416Z,995.48
2023-04-02T05:47:30.381Z,995.48
2023-04-02T05:48:30.358Z,995.48
2023-04-02T05:49:30.348Z,995.52
2023-04-02T05:50:30.394Z,995.52
2023-04-02T05:51:30.338Z,995.58
2023-04-02T05:52:30.313Z,995.59
2023-04-02T05:53:30.307Z,995.62
2023-04-02T05:54:30.300Z,995.64
2023-04-02T05:55:30.285Z,995.63
2023-04-02T05:56:30.286Z,995.66
2023-04-02T05:57:42.687Z,995.71
2023-04-02T05:58:36.213Z,995.69
2023-04-02T05:59:30.245Z,995.74
2023-04-02T06:00:30.260Z,995.71
2023-04-02T06:01:30.567Z,995.73
2023-04-02T06:02:30.285Z,995.80
2023-04-02T06:03:30.282Z,995.79
2023-04-02T06:04:30.188Z,995.80
2023-04-02T06:05:30.182Z,995.80
2023-04-02T06:06:30.194Z,995.82
2023-04-02T06:07:30.155Z,995.84
2023-04-02T06:08:30.142Z,995.87
2023-04-02T06:09:30.144Z,995.86
2023-04-02T06:10:30.129Z,995.86
2023-04-02T06:11:30.427Z,995.93
2023-04-02T06:12:30.103Z,995.93
2023-04-02T06:13:30.112Z,996.01
2023-04-02T06:14:30.082Z,995.99
2023-04-02T06:15:30.078Z,996.03
2023-04-02T06:16:30.116Z,996.05
2023-04-02T06:17:30.097Z,996.07
2023-04-02T06:18:30.042Z,996.12
2023-04-02T06:19:30.033Z,996.13
2023-04-02T06:20:30.035Z,996.17
2023-04-02T06:21:30.394Z,996.20
2023-04-02T06:22:30.013Z,996.24
2023-04-02T06:23:29.998Z,996.23
2023-04-02T06:24:29.979Z,996.27
2023-04-02T06:25:29.992Z,996.32
2023-04-02T06:26:29.982Z,996.34
2023-04-02T06:27:29.960Z,996.34
2023-04-02T06:28:29.949Z,996.39
2023-04-02T06:29:29.934Z,996.41
2023-04-02T06:30:29.920Z,996.43
2023-04-02T06:31:29.932Z,996.43
2023-04-02T06:32:29.925Z,996.46
2023-04-02T06:33:29.893Z,996.46
2023-04-02T06:34:29.881Z,996.46
2023-04-02T06:35:29.868Z,996.49
2023-04-02T06:36:29.882Z,996.52
2023-04-02T06:37:29.875Z,996.55
2023-04-02T06:38:29.837Z,996.58
2023-04-02T06:39:29.836Z,996.60
2023-04-02T06:40:29.823Z,996.60
2023-04-02T06:41:29.834Z,996.60
2023-04-02T06:42:29.817Z,996.63
2023-04-02T06:43:29.796Z,996.65
2023-04-02T06:44:29.778Z,996.64
2023-04-02T06:45:29.772Z,996.68
2023-04-02T06:46:29.952Z,996.67
2023-04-02T06:47:29.800Z,996.73
2023-04-02T06:48:29.747Z,996.73
2023-04-02T06:49:29.762Z,996.81
2023-04-02T06:50:29.746Z,996.80
2023-04-02T06:51:30.076Z,996.82
2023-04-02T06:52:29.710Z,996.87
2023-04-02T06:53:29.693Z,996.91
2023-04-02T06:54:29.676Z,996.94
2023-04-02T06:55:29.711Z,996.93
2023-04-02T06:56:29.672Z,996.97
2023-04-02T06:57:29.719Z,997.01
2023-04-02T06:58:29.639Z,997.05
2023-04-02T06:59:29.628Z,997.08
2023-04-02T07:00:29.614Z,997.11
2023-04-02T07:01:30.023Z,997.13
2023-04-02T07:02:29.638Z,997.15
2023-04-02T07:03:29.596Z,997.15
2023-04-02T07:04:29.597Z,997.21
2023-04-02T07:05:29.568Z,997.25
2023-04-02T07:06:29.563Z,997.24
2023-04-02T07:07:29.549Z,997.28
2023-04-02T07:08:29.530Z,997.32
2023-04-02T07:09:29.524Z,997.31
2023-04-02T07:10:29.520Z,997.32
2023-04-02T07:11:29.529Z,997.37
2023-04-02T07:12:29.494Z,997.40
2023-04-02T07:13:29.483Z,997.41
2023-04-02T07:14:29.474Z,997.44
2023-04-02T07:15:29.456Z,997.45
2023-04-02T07:16:29.819Z,997.49
2023-04-02T07:17:29.451Z,997.50
2023-04-02T07:18:29.435Z,997.54
2023-04-02T07:19:29.417Z,997.57
2023-04-02T07:20:29.410Z,997.59
2023-04-02T07:21:29.587Z,997.62
2023-04-02T07:22:29.390Z,997.64
2023-04-02T07:23:29.379Z,997.68
2023-04-02T07:24:29.368Z,997.69
2023-04-02T07:25:29.356Z,997.72
2023-04-02T07:26:29.708Z,997.73
2023-04-02T07:27:29.366Z,997.73
2023-04-02T07:28:29.319Z,997.78
2023-04-02T07:29:29.314Z,997.79
2023-04-02T07:30:29.301Z,997.78
2023-04-02T07:31:29.390Z,997.81
2023-04-02T07:32:29.348Z,997.83
2023-04-02T07:33:29.272Z,997.84
2023-04-02T07:34:29.260Z,997.85
2023-04-02T07:35:29.255Z,997.87
2023-04-02T07:36:29.585Z,997.89
2023-04-02T07:37:29.231Z,997.89
2023-04-02T07:38:29.217Z,997.90
2023-04-02T07:39:29.216Z,997.94
2023-04-02T07:40:29.194Z,997.94
2023-04-02T07:41:29.226Z,997.97
2023-04-02T07:42:29.268Z,997.98
2023-04-02T07:43:29.167Z,998.02
2023-04-02T07:44:29.166Z,998.04
2023-04-02T07:45:29.146Z,998.06
2023-04-02T07:46:29.173Z,998.06
2023-04-02T07:47:29.153Z,998.10
2023-04-02T07:48:29.123Z,998.10
2023-04-02T07:49:29.105Z,998.10
2023-04-02T07:50:29.097Z,998.15
2023-04-02T07:51:29.117Z,998.18
2023-04-02T07:52:29.077Z,998.19
2023-04-02T07:53:29.066Z,998.23
2023-04-02T07:54:29.060Z,998.23
2023-04-02T07:55:29.049Z,998.26
2023-04-02T07:56:29.413Z,998.25
2023-04-02T07:57:29.080Z,998.27
2023-04-02T07:58:29.010Z,998.28
2023-04-02T07:59:29.014Z,998.27
2023-04-02T08:00:29.109Z,998.31
2023-04-02T08:01:29.023Z,998.34
2023-04-02T08:02:29.043Z,998.37
2023-04-02T08:03:29.132Z,998.39
2023-04-02T08:04:28.950Z,998.42
2023-04-02T08:05:28.948Z,998.44
2023-04-02T08:06:28.931Z,998.46
2023-04-02T08:07:28.947Z,998.50
2023-04-02T08:08:28.905Z,998.51
2023-04-02T08:09:28.905Z,998.54
2023-04-02T08:10:28.884Z,998.58
2023-04-02T08:11:30.570Z,998.60
2023-04-02T08:12:28.890Z,998.60
2023-04-02T08:13:28.967Z,998.66
2023-04-02T08:14:28.852Z,998.64
2023-04-02T08:15:28.846Z,998.66
2023-04-02T08:16:28.931Z,998.67
2023-04-02T08:17:29.202Z,998.69
2023-04-02T08:18:28.850Z,998.72
2023-04-02T08:19:28.882Z,998.74
2023-04-02T08:20:28.899Z,998.75
2023-04-02T08:21:28.895Z,998.78
2023-04-02T08:22:29.106Z,998.77
2023-04-02T08:23:28.779Z,998.80
2023-04-02T08:24:28.747Z,998.83
2023-04-02T08:25:28.751Z,998.86
2023-04-02T08:26:28.723Z,998.87
2023-04-02T08:27:29.051Z,998.86
2023-04-02T08:28:28.706Z,998.88
2023-04-02T08:29:28.705Z,998.89
2023-04-02T08:30:28.698Z,998.90
2023-04-02T08:31:28.732Z,998.91
2023-04-02T08:32:29.190Z,998.92
2023-04-02T08:33:28.700Z,998.92
2023-04-02T08:34:28.644Z,998.93
2023-04-02T08:35:28.634Z,998.94
2023-04-02T08:36:28.766Z,998.95
2023-04-02T08:37:28.993Z,998.95
2023-04-02T08:38:28.620Z,998.97
2023-04-02T08:39:28.601Z,999.01
2023-04-02T08:40:28.611Z,999.01
2023-04-02T08:41:28.579Z,999.04
2023-04-02T08:42:28.865Z,999.04
2023-04-02T08:43:28.578Z,999.10
2023-04-02T08:44:28.538Z,999.11
2023-04-02T08:45:28.580Z,999.13
2023-04-02T08:46:28.556Z,999.14
2023-04-02T08:47:28.890Z,999.16
2023-04-02T08:48:28.499Z,999.17
2023-04-02T08:49:28.490Z,999.19
2023-04-02T08:50:28.481Z,999.23
2023-04-02T08:51:28.474Z,999.26
2023-04-02T08:52:28.897Z,999.26
2023-04-02T08:53:28.483Z,999.29
2023-04-02T08:54:29.006Z,999.30
2023-04-02T08:55:28.427Z,999.33
2023-04-02T08:56:28.416Z,999.33
2023-04-02T08:57:28.937Z,999.36
2023-04-02T08:58:28.394Z,999.37
2023-04-02T08:59:28.410Z,999.40
2023-04-02T09:00:28.375Z,999.42
2023-04-02T09:01:28.409Z,999.44
2023-04-02T09:02:28.445Z,999.46
2023-04-02T09:03:28.364Z,999.46
2023-04-02T09:04:28.328Z,999.49
2023-04-02T09:05:28.331Z,999.50
2023-04-02T09:06:28.402Z,999.55
2023-04-02T09:07:28.659Z,999.56
2023-04-02T09:08:28.307Z,999.58
2023-04-02T09:09:28.310Z,999.58
2023-04-02T09:10:28.287Z,999.60
2023-04-02T09:11:28.270Z,999.61
2023-04-02T09:12:28.262Z,999.63
2023-04-02T09:13:28.245Z,999.67
2023-04-02T09:14:28.229Z,999.68
2023-04-02T09:15:28.225Z,999.71
2023-04-02T09:16:28.262Z,999.72
2023-04-02T09:17:29.222Z,999.77
2023-04-02T09:18:28.247Z,999.77
2023-04-02T09:19:28.194Z,999.79
2023-04-02T09:20:28.169Z,999.82
2023-04-02T09:21:28.183Z,999.83
2023-04-02T09:22:28.519Z,999.84
2023-04-02T09:23:28.167Z,999.87
2023-04-02T09:24:28.248Z,999.89
2023-04-02T09:25:28.157Z,999.91
2023-04-02T09:26:28.146Z,999.91
2023-04-02T09:27:28.472Z,999.94
2023-04-02T09:28:28.116Z,999.98
2023-04-02T09:29:28.095Z,1000.00
2023-04-02T09:30:28.070Z,1000.02
2023-04-02T09:31:28.140Z,1000.04
2023-04-02T09:32:28.132Z,1000.05
2023-04-02T09:33:28.041Z,1000.08
2023-04-02T09:34:28.050Z,1000.08
2023-04-02T09:35:28.020Z,1000.07
2023-04-02T09:36:28.018Z,1000.12
2023-04-02T09:37:28.035Z,1000.15
2023-04-02T09:38:28.006Z,1000.18
2023-04-02T09:39:27.989Z,1000.22
2023-04-02T09:40:27.974Z,1000.19
2023-04-02T09:41:27.989Z,1000.20
2023-04-02T09:42:27.984Z,1000.24
2023-04-02T09:43:27.986Z,1000.25
2023-04-02T09:44:27.960Z,1000.24
2023-04-02T09:45:27.926Z,1000.29
2023-04-02T09:46:27.985Z,1000.32
2023-04-02T09:47:28.071Z,1000.30
2023-04-02T09:48:27.891Z,1000.31
2023-04-02T09:49:27.913Z,1000.33
2023-04-02T09:50:27.923Z,1000.35
2023-04-02T09:51:27.909Z,1000.37
2023-04-02T09:52:27.960Z,1000.38
2023-04-02T09:53:27.841Z,1000.42
2023-04-02T09:54:27.839Z,1000.46
2023-04-02T09:55:27.840Z,1000.45
2023-04-02T09:56:27.908Z,1000.48
2023-04-02T09:57:28.244Z,1000.48
2023-04-02T09:58:27.786Z,1000.52
2023-04-02T09:59:27.793Z,1000.53
2023-04-02T10:00:32.216Z,1000.55
2023-04-02T10:01:27.863Z,1000.53
2023-04-02T10:02:27.801Z,1000.57
2023-04-02T10:03:27.796Z,1000.56
2023-04-02T10:04:27.796Z,1000.63
2023-04-02T10:05:39.893Z,1000.59
2023-04-02T10:06:27.707Z,1000.63
2023-04-02T10:07:27.687Z,1000.64
2023-04-02T10:08:28.057Z,1000.69
2023-04-02T10:09:27.668Z,1000.60
2023-04-02T10:10:27.664Z,1000.74
2023-04-02T10:11:36.395Z,1000.74
2023-04-02T10:12:27.656Z,1000.75
2023-04-02T10:13:27.992Z,1000.77
2023-04-02T10:14:27.631Z,1000.78
2023-04-02T10:15:27.686Z,1000.79
2023-04-02T10:16:27.714Z,1000.82
2023-04-02T10:17:27.676Z,1000.82
2023-04-02T10:18:27.580Z,1000.86
2023-04-02T10:19:27.638Z,1000.86
2023-04-02T10:20:27.592Z,1000.98
2023-04-02T10:21:27.540Z,1000.83
2023-04-02T10:22:27.580Z,1000.92
2023-04-02T10:23:27.532Z,1000.92
2023-04-02T10:24:27.550Z,1000.95
2023-04-02T10:25:27.539Z,1000.97
2023-04-02T10:26:27.494Z,1000.97
2023-04-02T10:27:27.529Z,1000.97
2023-04-02T10:28:27.476Z,1001.02
2023-04-02T10:29:27.481Z,1000.98
2023-04-02T10:30:27.479Z,1001.02
2023-04-02T10:31:27.484Z,1001.07
2023-04-02T10:32:27.497Z,1001.09
2023-04-02T10:33:27.422Z,1001.10
2023-04-02T10:34:27.416Z,1001.11
2023-04-02T10:35:27.451Z,1001.13
2023-04-02T10:36:27.401Z,1001.15
2023-04-02T10:37:27.438Z,1001.19
2023-04-02T10:38:27.387Z,1001.15
2023-04-02T10:39:27.363Z,1001.18
2023-04-02T10:40:27.357Z,1001.16
2023-04-02T10:41:27.359Z,1001.18
2023-04-02T10:42:27.391Z,1001.20
2023-04-02T10:43:27.320Z,1001.24
2023-04-02T10:44:27.317Z,1001.29
2023-04-02T10:45:27.337Z,1001.31
2023-04-02T10:46:27.338Z,1001.29
2023-04-02T10:47:27.414Z,1001.31
2023-04-02T10:48:27.300Z,1001.30
2023-04-02T10:49:27.287Z,1001.31
2023-04-02T10:50:27.250Z,1001.32
2023-04-02T10:51:27.256Z,1001.33
2023-04-02T10:52:27.249Z,1001.31
2023-04-02T10:53:27.265Z,1001.34
2023-04-02T10:54:27.262Z,1001.31
2023-04-02T10:55:27.201Z,1001.34
2023-04-02T10:56:28.510Z,1001.33
2023-04-02T10:57:27.215Z,1001.34
2023-04-02T10:58:27.208Z,1001.37
2023-04-02T10:59:27.164Z,1001.36
2023-04-02T11:00:27.175Z,1001.37
2023-04-02T11:01:27.144Z,1001.42
2023-04-02T11:02:27.182Z,1001.45
2023-04-02T11:03:27.257Z,1001.43
2023-04-02T11:04:27.123Z,1001.44
2023-04-02T11:05:27.088Z,1001.44
2023-04-02T11:06:28.452Z,1001.42
2023-04-02T11:07:27.099Z,1001.43
2023-04-02T11:08:27.449Z,1001.47
2023-04-02T11:09:27.060Z,1001.47
2023-04-02T11:10:27.050Z,1001.50
2023-04-02T11:11:27.038Z,1001.49
2023-04-02T11:12:27.023Z,1001.51
2023-04-02T11:13:27.035Z,1001.53
2023-04-02T11:14:27.060Z,1001.53
2023-04-02T11:15:26.993Z,1001.53
2023-04-02T11:16:27.053Z,1001.54
2023-04-02T11:17:27.011Z,1001.56
2023-04-02T11:18:27.004Z,1001.57
2023-04-02T11:19:26.955Z,1001.60
2023-04-02T11:20:26.948Z,1001.59
2023-04-02T11:21:26.961Z,1001.63
2023-04-02T11:22:26.925Z,1001.65
2023-04-02T11:23:27.421Z,1001.69
2023-04-02T11:24:26.903Z,1001.69
2023-04-02T11:25:26.912Z,1001.73
2023-04-02T11:26:26.884Z,1001.71
2023-04-02T11:27:26.872Z,1001.74
2023-04-02T11:28:27.154Z,1001.78
2023-04-02T11:29:26.845Z,1001.86
2023-04-02T11:30:26.841Z,1001.83
2023-04-02T11:31:26.857Z,1001.80
2023-04-02T11:32:26.843Z,1001.84
2023-04-02T11:33:36.623Z,1001.84
2023-04-02T11:34:26.806Z,1001.83
2023-04-02T11:35:26.792Z,1001.87
2023-04-02T11:36:26.857Z,1001.90
2023-04-02T11:37:26.762Z,1001.89
2023-04-02T11:38:26.774Z,1001.93
2023-04-02T11:39:26.766Z,1002.00
2023-04-02T11:40:26.742Z,1001.92
2023-04-02T11:41:26.724Z,1001.98
2023-04-02T11:42:26.733Z,1001.96
2023-04-02T11:43:26.756Z,1001.97
2023-04-02T11:44:26.696Z,1001.96
2023-04-02T11:45:26.697Z,1001.97
2023-04-02T11:46:26.797Z,1001.97
2023-04-02T11:47:26.719Z,1001.97
2023-04-02T11:48:26.688Z,1001.99
2023-04-02T11:49:26.651Z,1001.96
2023-04-02T11:50:26.633Z,1001.95
2023-04-02T11:51:26.620Z,1001.95
2023-04-02T11:52:26.620Z,1001.97
2023-04-02T11:53:26.771Z,1001.96
2023-04-02T11:54:26.643Z,1002.03
2023-04-02T11:55:26.584Z,1001.98
2023-04-02T11:56:26.592Z,1001.97
2023-04-02T11:57:26.609Z,1001.98
2023-04-02T11:58:26.564Z,1002.01
2023-04-02T11:59:26.570Z,1002.01
2023-04-02T12:00:26.535Z,1001.99
2023-04-02T12:01:26.513Z,1002.01
2023-04-02T12:02:26.575Z,1002.04
2023-04-02T12:03:26.532Z,1002.05
2023-04-02T12:04:26.502Z,1002.05
2023-04-02T12:05:26.578Z,1002.06
2023-04-02T12:06:26.474Z,1002.06
2023-04-02T12:07:26.452Z,1002.07
2023-04-02T12:08:26.801Z,1002.11
2023-04-02T12:09:26.428Z,1002.13
2023-04-02T12:10:26.444Z,1002.16
2023-04-02T12:11:26.457Z,1002.17
2023-04-02T12:12:26.403Z,1002.19
2023-04-02T12:13:26.976Z,1002.22
2023-04-02T12:14:26.387Z,1002.27
2023-04-02T12:15:26.397Z,1002.28
2023-04-02T12:16:26.404Z,1002.31
2023-04-02T12:17:26.413Z,1002.35
2023-04-02T12:18:26.365Z,1002.38
2023-04-02T12:19:26.332Z,1002.37
2023-04-02T12:20:26.335Z,1002.39
2023-04-02T12:21:26.312Z,1002.39
2023-04-02T12:22:26.317Z,1002.45
2023-04-02T12:23:26.580Z,1002.45